Time;durP1;ratioP1;P1;durP2;ratioP2;P2;SDS_P1;SDS_P2;PMS_P1;PMS_P2;Temp;Humidity;BMP_temperature;BMP_pressure;BME280_temperature;BME280_humidity;BME280_pressure;Samples;Min_cycle;Max_cycle;Signal;HPM_P1;HPM_P2
2021/12/15 00:01:57;;;;;;;33.55;16.00;;;8.00;85.30;;;;;;5113117;28;20206;-61
2021/12/15 00:04:24;;;;;;;34.60;17.88;;;7.90;85.30;;;;;;5111822;28;20757;-57
2021/12/15 00:06:51;;;;;;;33.83;17.27;;;8.00;85.40;;;;;;5113067;28;20756;-60
2021/12/15 00:09:18;;;;;;;33.03;18.50;;;7.90;85.20;;;;;;5113085;28;20543;-57
2021/12/15 00:11:46;;;;;;;32.08;17.52;;;7.90;85.40;;;;;;5113078;28;20296;-57
2021/12/15 00:14:15;;;;;;;34.63;17.73;;;8.00;85.50;;;;;;5112813;28;20202;-59
2021/12/15 00:16:43;;;;;;;34.03;17.42;;;8.00;85.50;;;;;;5112896;28;20242;-57
2021/12/15 00:19:12;;;;;;;31.25;16.58;;;8.10;85.40;;;;;;5112166;28;20210;-57
2021/12/15 00:21:39;;;;;;;35.65;18.58;;;8.00;85.20;;;;;;5116814;28;20210;-56
2021/12/15 00:24:08;;;;;;;30.55;17.40;;;8.00;85.50;;;;;;5116744;28;20207;-57
2021/12/15 00:26:36;;;;;;;31.13;17.20;;;8.00;85.40;;;;;;5116632;28;20242;-60
2021/12/15 00:29:05;;;;;;;39.13;18.67;;;8.00;85.20;;;;;;5116684;28;20290;-58
2021/12/15 00:31:33;;;;;;;33.03;18.90;;;8.00;85.20;;;;;;5116624;28;20268;-57
2021/12/15 00:34:01;;;;;;;31.05;17.00;;;8.00;85.30;;;;;;5115269;28;20665;-58
2021/12/15 00:36:29;;;;;;;31.42;17.67;;;8.10;85.30;;;;;;5116380;28;20322;-58
2021/12/15 00:38:56;;;;;;;35.47;18.17;;;8.10;85.40;;;;;;5116478;28;20217;-57
2021/12/15 00:41:23;;;;;;;28.23;16.05;;;8.20;84.90;;;;;;5116479;28;20569;-56
2021/12/15 00:43:50;;;;;;;29.92;16.80;;;8.20;84.90;;;;;;5116216;28;20224;-57
2021/12/15 00:46:17;;;;;;;28.85;15.45;;;8.30;84.60;;;;;;5116366;28;20207;-57
2021/12/15 00:48:44;;;;;;;29.17;16.35;;;8.30;84.50;;;;;;5115073;28;20199;-61
2021/12/15 00:51:11;;;;;;;31.63;16.20;;;8.30;84.30;;;;;;5116282;28;20207;-58
2021/12/15 00:53:39;;;;;;;31.88;16.45;;;8.30;84.40;;;;;;5116145;28;20214;-57
2021/12/15 00:56:06;;;;;;;31.77;17.00;;;8.20;84.20;;;;;;5116179;28;20282;-57
2021/12/15 00:58:33;;;;;;;32.83;16.02;;;8.20;84.40;;;;;;5116063;28;20199;-57
2021/12/15 01:01:02;;;;;;;29.60;15.88;;;8.30;84.30;;;;;;5116028;28;20199;-57
2021/12/15 01:03:30;;;;;;;28.17;15.85;;;8.20;84.10;;;;;;5114720;28;20294;-60
2021/12/15 01:06:04;;;;;;;35.47;17.40;;;8.20;84.30;;;;;;5115900;28;20380;-57
2021/12/15 01:08:32;;;;;;;29.35;15.40;;;8.20;84.30;;;;;;5115818;28;20210;-57
2021/12/15 01:11:11;;;;;;;34.13;17.05;;;8.20;84.30;;;;;;5115814;28;20264;-56
2021/12/15 01:21:58;;;;;;;36.00;16.65;;;8.10;84.40;;;;;;5115588;28;20222;-58
2021/12/15 01:24:25;;;;;;;35.58;17.90;;;8.10;84.40;;;;;;5115605;28;20218;-58
2021/12/15 01:26:53;;;;;;;36.22;17.55;;;8.00;84.60;;;;;;5115506;28;20205;-58
2021/12/15 01:29:20;;;;;;;40.13;18.30;;;8.00;84.80;;;;;;5115505;28;20206;-58
2021/12/15 01:31:47;;;;;;;35.47;17.85;;;8.10;84.80;;;;;;5114387;28;20210;-58
2021/12/15 01:34:15;;;;;;;25.35;13.68;;;7.90;85.00;;;;;;5114088;28;20203;-59
2021/12/15 01:36:42;;;;;;;34.85;16.27;;;8.00;85.40;;;;;;5115294;28;20227;-58
2021/12/15 01:39:09;;;;;;;26.17;13.07;;;8.00;85.00;;;;;;5115365;28;20238;-57
2021/12/15 01:41:36;;;;;;;31.02;15.55;;;8.00;85.40;;;;;;5115203;28;20202;-58
2021/12/15 01:46:56;;;;;;;32.28;14.93;;;8.10;84.70;;;;;;5115233;28;20203;-58
2021/12/15 01:49:34;;;;;;;25.83;13.18;;;8.20;84.60;;;;;;5113730;28;20204;-62
2021/12/15 01:52:04;;;;;;;28.90;15.00;;;8.20;84.60;;;;;;5115000;28;20199;-58
2021/12/15 01:54:33;;;;;;;28.10;13.13;;;8.10;84.70;;;;;;5115076;28;20294;-58
2021/12/15 01:57:02;;;;;;;23.35;13.40;;;8.10;84.60;;;;;;5115120;28;20284;-58
2021/12/15 01:59:31;;;;;;;28.05;13.38;;;8.10;84.80;;;;;;5114928;28;20206;-58
2021/12/15 02:01:58;;;;;;;34.03;15.93;;;8.10;84.70;;;;;;5114857;28;20210;-60
2021/12/15 02:04:25;;;;;;;25.90;13.77;;;8.20;84.60;;;;;;5113463;28;20217;-59
2021/12/15 02:06:54;;;;;;;24.48;12.95;;;8.20;84.60;;;;;;5114720;28;20199;-58
2021/12/15 02:09:39;;;;;;;24.27;11.85;;;8.10;84.40;;;;;;5114698;28;20210;-58
2021/12/15 02:12:06;;;;;;;24.73;12.52;;;8.10;84.70;;;;;;5114701;28;20206;-58
2021/12/15 02:14:35;;;;;;;23.65;13.48;;;8.00;84.70;;;;;;5114657;28;20235;-60
2021/12/15 02:17:02;;;;;;;23.08;11.80;;;8.00;84.90;;;;;;5114484;28;20302;-58
2021/12/15 02:19:30;;;;;;;19.30;11.52;;;7.90;84.90;;;;;;5113142;28;20199;-59
2021/12/15 02:21:59;;;;;;;20.98;10.85;;;8.00;84.90;;;;;;5114347;28;20306;-58
2021/12/15 02:24:26;;;;;;;21.73;12.40;;;7.90;85.20;;;;;;5114535;28;20199;-56
2021/12/15 02:26:58;;;;;;;19.63;10.75;;;8.00;85.30;;;;;;5114351;28;20210;-61
2021/12/15 02:29:29;;;;;;;21.35;10.90;;;8.00;85.20;;;;;;5114357;27;20264;-57
2021/12/15 02:32:12;;;;;;;19.95;10.52;;;7.90;84.90;;;;;;5114209;28;20199;-59
2021/12/15 02:35:07;;;;;;;16.63;9.50;;;7.90;85.20;;;;;;5113042;28;20206;-61
2021/12/15 02:37:34;;;;;;;17.65;9.98;;;7.90;85.30;;;;;;5114106;28;20402;-56
2021/12/15 02:40:06;;;;;;;17.90;9.80;;;7.90;84.90;;;;;;5114091;28;20202;-57
2021/12/15 02:42:36;;;;;;;13.15;7.93;;;7.90;85.20;;;;;;5113718;28;20207;-56
2021/12/15 02:45:04;;;;;;;9.43;6.45;;;7.90;84.80;;;;;;5114069;28;20210;-57
2021/12/15 02:47:33;;;;;;;6.05;4.45;;;7.70;85.20;;;;;;5113897;28;20203;-58
2021/12/15 02:50:01;;;;;;;7.60;5.63;;;7.70;85.20;;;;;;5113485;28;20203;-57
2021/12/15 02:52:28;;;;;;;7.45;5.20;;;7.70;84.90;;;;;;5113867;28;20282;-58
2021/12/15 02:54:57;;;;;;;7.53;4.65;;;7.80;85.00;;;;;;5113775;28;20705;-56
2021/12/15 02:57:24;;;;;;;4.97;4.07;;;7.80;84.80;;;;;;5113854;28;20262;-58
2021/12/15 02:59:59;;;;;;;6.07;5.30;;;7.80;84.70;;;;;;5113890;28;20288;-56
2021/12/15 03:03:00;;;;;;;7.05;5.70;;;7.80;84.70;;;;;;5113818;28;20313;-58
2021/12/15 03:05:30;;;;;;;8.35;6.57;;;7.80;84.80;;;;;;5113585;28;20648;-59
2021/12/15 03:08:05;;;;;;;9.02;6.68;;;7.80;84.70;;;;;;5113789;28;20203;-58
2021/12/15 03:16:05;;;;;;;9.82;7.53;;;8.00;84.50;;;;;;5113663;28;20762;-58
2021/12/15 03:18:32;;;;;;;10.32;7.20;;;8.00;84.00;;;;;;5112187;28;20323;-62
2021/12/15 03:21:01;;;;;;;10.30;7.65;;;7.90;84.00;;;;;;5113466;28;20219;-58
2021/12/15 03:23:34;;;;;;;10.45;7.40;;;7.90;84.30;;;;;;5113401;28;20237;-59
2021/12/15 03:26:03;;;;;;;13.77;8.60;;;8.00;84.40;;;;;;5113424;28;20253;-58
2021/12/15 03:34:12;;;;;;;11.70;7.95;;;8.00;84.10;;;;;;5112141;28;20276;-60
2021/12/15 03:37:08;;;;;;;11.18;7.45;;;8.00;84.20;;;;;;5113331;28;20630;-58
2021/12/15 03:39:40;;;;;;;11.45;8.07;;;7.90;84.10;;;;;;5113389;28;20290;-56
2021/12/15 03:42:10;;;;;;;9.32;6.68;;;7.90;84.40;;;;;;5113351;28;20203;-58
2021/12/15 03:44:40;;;;;;;10.07;7.70;;;8.00;84.40;;;;;;5113103;28;20284;-57
2021/12/15 03:47:11;;;;;;;11.80;7.45;;;7.90;84.10;;;;;;5113281;28;20195;-58
2021/12/15 03:49:38;;;;;;;9.02;7.05;;;7.90;84.40;;;;;;5111870;28;20203;-56
2021/12/15 03:52:07;;;;;;;10.55;7.07;;;7.90;84.40;;;;;;5113251;28;20209;-56
2021/12/15 03:54:34;;;;;;;7.93;7.13;;;8.00;84.20;;;;;;5114446;28;20203;-57
2021/12/15 03:57:01;;;;;;;9.93;7.20;;;8.00;84.20;;;;;;5117186;28;20196;-60
2021/12/15 03:59:32;;;;;;;9.57;6.57;;;7.90;83.80;;;;;;5117120;28;20653;-57
2021/12/15 04:01:59;;;;;;;9.70;5.82;;;7.90;83.60;;;;;;5117148;28;20286;-57
2021/12/15 04:04:26;;;;;;;8.00;6.30;;;7.80;83.40;;;;;;5115982;28;20398;-58
2021/12/15 04:06:53;;;;;;;9.45;7.10;;;7.90;84.00;;;;;;5117153;28;20199;-56
2021/12/15 04:09:20;;;;;;;9.45;7.25;;;7.90;84.00;;;;;;5117057;28;20199;-59
2021/12/15 04:11:47;;;;;;;8.50;6.90;;;8.00;83.90;;;;;;5117061;27;20200;-57
2021/12/15 04:14:21;;;;;;;9.00;6.97;;;8.10;83.80;;;;;;5116901;28;20294;-58
2021/12/15 04:17:01;;;;;;;9.25;7.05;;;8.10;83.50;;;;;;5117000;28;20206;-58
2021/12/15 04:19:28;;;;;;;9.48;7.03;;;8.10;83.50;;;;;;5115647;28;20214;-56
2021/12/15 04:21:55;;;;;;;11.45;8.23;;;7.90;82.90;;;;;;5116847;28;20226;-56
2021/12/15 04:24:24;;;;;;;8.68;7.07;;;7.90;83.10;;;;;;5116804;28;20294;-56
2021/12/15 04:26:51;;;;;;;9.60;7.50;;;7.90;83.50;;;;;;5116787;28;20218;-57
2021/12/15 04:29:19;;;;;;;8.27;6.80;;;7.90;83.70;;;;;;5116711;28;20673;-57
2021/12/15 04:31:52;;;;;;;10.38;7.85;;;7.90;83.10;;;;;;5116682;28;20290;-57
2021/12/15 04:34:19;;;;;;;10.70;8.15;;;7.90;83.50;;;;;;5115353;28;20199;-57
2021/12/15 04:36:48;;;;;;;9.43;7.78;;;7.90;83.70;;;;;;5116527;27;20211;-57
2021/12/15 04:39:17;;;;;;;9.48;7.57;;;7.80;82.80;;;;;;5116399;27;20782;-57
2021/12/15 04:41:48;;;;;;;7.75;6.30;;;7.70;82.40;;;;;;5116499;28;20210;-57
2021/12/15 04:44:16;;;;;;;8.57;7.43;;;7.60;82.50;;;;;;5116392;27;20238;-57
2021/12/15 04:46:46;;;;;;;8.57;6.82;;;7.60;83.40;;;;;;5116408;27;20305;-57
2021/12/15 04:49:18;;;;;;;8.40;7.05;;;7.70;83.60;;;;;;5115004;28;20230;-58
2021/12/15 04:51:47;;;;;;;9.70;7.05;;;7.80;83.60;;;;;;5116356;28;20203;-57
2021/12/15 04:54:14;;;;;;;10.05;7.97;;;7.90;83.40;;;;;;5116268;28;20332;-57
2021/12/15 04:56:41;;;;;;;10.23;7.75;;;7.90;82.90;;;;;;5116245;28;20205;-58
2021/12/15 04:59:08;;;;;;;8.65;6.60;;;7.90;83.20;;;;;;5115959;28;20258;-57
2021/12/15 05:01:35;;;;;;;9.65;7.90;;;7.90;83.20;;;;;;5116162;28;20203;-57
2021/12/15 05:04:02;;;;;;;11.38;7.82;;;7.80;83.20;;;;;;5114683;28;20205;-57
2021/12/15 05:06:31;;;;;;;12.18;9.52;;;7.90;83.40;;;;;;5115887;28;20291;-58
2021/12/15 05:08:59;;;;;;;10.32;8.57;;;7.90;83.30;;;;;;5115976;28;20300;-57
2021/12/15 05:11:26;;;;;;;10.60;8.57;;;7.90;82.90;;;;;;5115830;28;20330;-58
2021/12/15 05:13:53;;;;;;;13.68;9.65;;;7.80;82.90;;;;;;5115909;28;20286;-57
2021/12/15 05:16:19;;;;;;;13.25;9.70;;;7.80;83.00;;;;;;5115828;28;20290;-58
2021/12/15 05:18:46;;;;;;;14.88;10.43;;;7.70;82.60;;;;;;5114239;28;20233;-57
2021/12/15 05:21:13;;;;;;;13.07;9.75;;;7.60;83.10;;;;;;5115618;28;20749;-58
2021/12/15 05:23:44;;;;;;;15.60;10.35;;;7.70;83.50;;;;;;5115590;28;20286;-58
2021/12/15 05:26:11;;;;;;;14.18;10.70;;;7.70;83.20;;;;;;5115593;28;20199;-57
2021/12/15 05:28:39;;;;;;;12.05;8.98;;;7.80;83.30;;;;;;5115469;28;20209;-57
2021/12/15 05:31:06;;;;;;;12.13;9.07;;;7.70;83.00;;;;;;5115433;28;20204;-57
2021/12/15 05:33:32;;;;;;;12.85;8.55;;;7.60;83.20;;;;;;5114034;28;20210;-59
2021/12/15 05:35:59;;;;;;;11.05;8.38;;;7.70;83.50;;;;;;5115297;28;20199;-57
2021/12/15 05:38:27;;;;;;;9.65;8.02;;;7.80;83.10;;;;;;5115280;28;20235;-57
2021/12/15 05:40:57;;;;;;;9.27;8.00;;;7.80;83.20;;;;;;5115400;28;20231;-57
2021/12/15 05:43:24;;;;;;;10.48;7.93;;;7.80;83.30;;;;;;5115127;28;20231;-59
2021/12/15 05:45:51;;;;;;;11.63;8.48;;;7.90;83.20;;;;;;5115057;28;20210;-58
2021/12/15 05:48:20;;;;;;;13.88;9.63;;;7.90;82.90;;;;;;5113802;28;20203;-57
2021/12/15 05:50:48;;;;;;;15.13;10.10;;;7.90;83.00;;;;;;5115167;28;20290;-57
2021/12/15 05:53:15;;;;;;;13.90;9.82;;;7.90;83.00;;;;;;5115082;28;20286;-59
2021/12/15 05:55:44;;;;;;;17.77;11.45;;;7.90;82.70;;;;;;5115021;28;20200;-58
2021/12/15 05:58:12;;;;;;;15.80;11.45;;;7.90;82.70;;;;;;5114957;28;20592;-58
2021/12/15 06:00:41;;;;;;;17.45;11.15;;;7.90;82.80;;;;;;5114945;28;20211;-58
2021/12/15 06:03:09;;;;;;;17.42;10.55;;;7.90;82.50;;;;;;5113566;28;20201;-57
2021/12/15 06:05:36;;;;;;;14.20;10.52;;;7.90;82.70;;;;;;5114812;28;20199;-57
2021/12/15 06:08:05;;;;;;;11.82;9.60;;;7.90;82.70;;;;;;5114758;28;20294;-57
2021/12/15 06:10:35;;;;;;;11.98;9.50;;;8.00;82.60;;;;;;5114698;28;20201;-58
2021/12/15 06:13:03;;;;;;;12.45;10.27;;;8.00;82.50;;;;;;5114646;28;20294;-59
2021/12/15 06:15:32;;;;;;;9.90;8.35;;;7.90;82.50;;;;;;5114615;28;20238;-58
2021/12/15 06:18:03;;;;;;;10.73;8.95;;;8.00;82.70;;;;;;5112558;28;20249;-58
2021/12/15 06:20:32;;;;;;;10.75;8.68;;;8.00;82.60;;;;;;5114519;28;20230;-57
2021/12/15 06:23:01;;;;;;;11.30;8.93;;;8.00;82.50;;;;;;5114510;28;20536;-57
2021/12/15 06:25:29;;;;;;;10.55;8.32;;;8.00;82.50;;;;;;5114294;28;20662;-57
2021/12/15 06:27:56;;;;;;;11.27;8.68;;;8.00;82.00;;;;;;5114326;28;20206;-56
2021/12/15 06:30:23;;;;;;;11.13;9.60;;;7.90;82.20;;;;;;5114407;28;20620;-58
2021/12/15 06:32:51;;;;;;;12.15;9.93;;;7.90;82.30;;;;;;5112963;28;20195;-58
2021/12/15 06:35:18;;;;;;;14.05;9.93;;;7.90;82.40;;;;;;5114241;28;20216;-57
2021/12/15 06:37:45;;;;;;;13.10;10.70;;;7.90;82.40;;;;;;5114186;28;20278;-56
2021/12/15 06:40:12;;;;;;;13.50;11.07;;;7.90;82.50;;;;;;5113978;28;20672;-57
2021/12/15 06:42:41;;;;;;;12.25;9.65;;;7.90;82.10;;;;;;5113950;28;20585;-58
2021/12/15 06:45:12;;;;;;;13.75;10.93;;;7.90;82.40;;;;;;5114021;28;20210;-58
2021/12/15 06:57:17;;;;;;;14.57;10.40;;;8.00;82.40;;;;;;5112674;28;20207;-57
2021/12/15 06:58:54;;;;;;;17.98;12.02;;;7.90;82.30;;;;;;5113518;28;20238;-56
2021/12/15 07:01:21;;;;;;;21.40;12.95;;;7.90;82.40;;;;;;5113689;28;20205;-58
2021/12/15 07:03:49;;;;;;;15.85;12.32;;;7.90;82.30;;;;;;5112434;28;20231;-56
2021/12/15 07:06:19;;;;;;;17.15;12.75;;;7.90;82.50;;;;;;5113718;28;20256;-57
2021/12/15 07:08:46;;;;;;;16.85;12.52;;;7.90;82.30;;;;;;5113838;28;20248;-58
2021/12/15 07:11:13;;;;;;;18.52;12.43;;;7.90;82.10;;;;;;5113532;28;20203;-58
2021/12/15 07:13:40;;;;;;;17.55;13.25;;;7.80;82.00;;;;;;5113537;28;20205;-59
2021/12/15 07:16:09;;;;;;;18.20;12.70;;;7.80;82.40;;;;;;5113673;28;20284;-60
2021/12/15 07:18:42;;;;;;;20.50;14.43;;;7.80;82.40;;;;;;5112178;28;20219;-58
2021/12/15 07:21:15;;;;;;;17.55;12.57;;;7.80;82.20;;;;;;5113452;28;20206;-58
2021/12/15 07:23:44;;;;;;;20.80;14.43;;;7.80;82.50;;;;;;5112718;28;20200;-59
2021/12/15 07:26:11;;;;;;;19.85;12.85;;;7.80;82.50;;;;;;5113496;28;20209;-58
2021/12/15 07:28:38;;;;;;;20.58;13.98;;;7.80;82.40;;;;;;5112607;28;20250;-58
2021/12/15 07:31:06;;;;;;;19.52;13.48;;;7.80;82.30;;;;;;5113317;28;20237;-58
2021/12/15 07:33:33;;;;;;;19.30;13.63;;;7.70;82.60;;;;;;5112059;28;20200;-58
2021/12/15 07:36:00;;;;;;;18.88;14.07;;;7.70;82.60;;;;;;5113325;28;20200;-58
2021/12/15 07:38:28;;;;;;;20.85;12.48;;;7.70;82.80;;;;;;5113135;28;20219;-59
2021/12/15 07:40:57;;;;;;;18.55;13.23;;;7.70;82.80;;;;;;5113254;28;20226;-58
2021/12/15 07:43:27;;;;;;;21.92;13.05;;;7.80;82.80;;;;;;5113132;28;20223;-58
2021/12/15 07:45:59;;;;;;;18.88;13.30;;;7.70;82.70;;;;;;5113244;28;20750;-58
2021/12/15 07:48:28;;;;;;;21.98;13.38;;;7.80;82.80;;;;;;5111850;28;20207;-60
2021/12/15 07:50:59;;;;;;;18.70;12.40;;;7.70;82.60;;;;;;5113043;28;20214;-58
2021/12/15 07:53:26;;;;;;;19.75;12.52;;;7.70;82.60;;;;;;5113185;28;20290;-59
2021/12/15 07:55:56;;;;;;;20.65;12.88;;;7.70;82.60;;;;;;5113097;28;20221;-58
2021/12/15 07:58:24;;;;;;;19.48;12.95;;;7.80;82.60;;;;;;5113007;28;20230;-58
2021/12/15 08:00:52;;;;;;;21.70;14.27;;;7.80;82.50;;;;;;5113217;28;20294;-58
2021/12/15 08:03:20;;;;;;;20.70;12.70;;;7.80;82.50;;;;;;5111917;28;20294;-58
2021/12/15 08:05:51;;;;;;;17.30;12.25;;;7.80;82.60;;;;;;5112985;28;20207;-59
2021/12/15 08:08:18;;;;;;;15.30;11.02;;;7.80;82.60;;;;;;5112950;28;20753;-59
2021/12/15 08:10:46;;;;;;;19.55;11.65;;;7.70;82.40;;;;;;5113024;28;20204;-60
2021/12/15 08:13:16;;;;;;;16.00;11.75;;;7.60;82.50;;;;;;5112960;28;20294;-58
2021/12/15 08:15:43;;;;;;;18.23;12.45;;;7.50;82.60;;;;;;5112949;28;20622;-58
2021/12/15 08:18:10;;;;;;;15.15;10.90;;;7.60;82.90;;;;;;5111458;28;20257;-59
2021/12/15 08:20:37;;;;;;;16.80;11.82;;;7.60;82.80;;;;;;5112690;28;20238;-59
2021/12/15 08:23:05;;;;;;;14.55;11.18;;;7.50;82.80;;;;;;5112959;28;20285;-59
2021/12/15 08:25:32;;;;;;;17.50;11.52;;;7.50;82.80;;;;;;5112888;28;20206;-62
2021/12/15 08:28:00;;;;;;;14.25;10.15;;;7.50;82.60;;;;;;5112892;28;20203;-58
2021/12/15 08:30:30;;;;;;;14.93;10.30;;;7.50;82.70;;;;;;5112781;28;20242;-58
2021/12/15 08:33:00;;;;;;;14.32;9.95;;;7.50;82.50;;;;;;5111620;28;20203;-58
2021/12/15 08:35:29;;;;;;;12.35;9.10;;;7.40;82.00;;;;;;5112706;28;20204;-58
2021/12/15 08:37:57;;;;;;;12.75;9.10;;;7.40;82.50;;;;;;5112797;28;20287;-59
2021/12/15 08:40:25;;;;;;;13.38;8.95;;;7.40;82.70;;;;;;5113532;28;20248;-57
2021/12/15 08:42:54;;;;;;;11.80;9.20;;;7.40;82.50;;;;;;5116225;27;20231;-60
2021/12/15 08:45:22;;;;;;;14.90;9.05;;;7.50;82.20;;;;;;5116386;28;20210;-58
2021/12/15 08:47:51;;;;;;;15.27;9.40;;;7.40;82.40;;;;;;5114988;28;20204;-56
2021/12/15 08:50:24;;;;;;;11.10;8.63;;;7.30;82.30;;;;;;5116178;28;20560;-58
2021/12/15 08:52:50;;;;;;;11.55;8.50;;;7.40;82.70;;;;;;5116200;28;20295;-58
2021/12/15 08:55:18;;;;;;;14.55;8.50;;;7.30;82.60;;;;;;5116085;28;20218;-57
2021/12/15 08:57:48;;;;;;;12.02;8.88;;;7.10;82.80;;;;;;5116280;27;20283;-58
2021/12/15 09:00:17;;;;;;;12.93;8.70;;;7.10;83.30;;;;;;5115979;28;20227;-57
2021/12/15 09:02:45;;;;;;;11.60;8.57;;;7.10;83.30;;;;;;5114628;28;20195;-57
2021/12/15 09:05:20;;;;;;;10.48;8.60;;;7.10;83.10;;;;;;5115946;28;20200;-57
2021/12/15 09:07:47;;;;;;;10.63;8.30;;;7.10;83.30;;;;;;5115858;28;20231;-58
2021/12/15 09:10:15;;;;;;;10.07;8.45;;;7.10;83.10;;;;;;5115664;28;20294;-58
2021/12/15 09:12:42;;;;;;;12.98;8.90;;;7.10;83.30;;;;;;5115767;28;20294;-57
2021/12/15 09:15:09;;;;;;;10.38;8.00;;;7.20;83.30;;;;;;5115822;28;20231;-58
2021/12/15 09:17:36;;;;;;;10.30;8.18;;;7.30;82.80;;;;;;5115266;28;20286;-58
2021/12/15 09:20:05;;;;;;;13.32;9.75;;;7.40;82.90;;;;;;5114965;28;20722;-59
2021/12/15 09:22:34;;;;;;;12.30;9.48;;;7.60;82.70;;;;;;5115619;28;20202;-58
2021/12/15 09:25:01;;;;;;;11.52;7.65;;;7.60;82.00;;;;;;5115578;27;20306;-58
2021/12/15 09:27:28;;;;;;;11.85;8.60;;;7.70;81.50;;;;;;5115591;28;20235;-58
2021/12/15 09:29:55;;;;;;;11.95;9.05;;;7.60;81.60;;;;;;5115611;28;20290;-57
2021/12/15 09:32:23;;;;;;;10.55;8.38;;;7.60;81.40;;;;;;5115414;28;20203;-57
2021/12/15 09:34:50;;;;;;;11.60;8.52;;;7.60;81.40;;;;;;5114135;28;20268;-57
2021/12/15 09:37:19;;;;;;;13.60;8.32;;;7.40;81.70;;;;;;5115209;27;20206;-58
2021/12/15 09:39:47;;;;;;;11.40;8.35;;;7.40;82.00;;;;;;5115274;27;20863;-57
2021/12/15 09:42:17;;;;;;;9.00;8.02;;;7.40;82.00;;;;;;5115182;28;20581;-59
2021/12/15 09:44:46;;;;;;;13.65;8.80;;;7.40;82.00;;;;;;5115113;28;20564;-57
2021/12/15 09:47:34;;;;;;;10.05;7.97;;;7.30;82.10;;;;;;5115170;28;20560;-56
2021/12/15 10:04:17;;;;;;;9.27;7.43;;;7.20;82.20;;;;;;5113511;28;20558;-58
2021/12/15 10:07:05;;;;;;;9.60;7.88;;;7.30;82.60;;;;;;5114747;28;20203;-58
2021/12/15 10:12:29;;;;;;;10.30;9.07;;;7.40;81.90;;;;;;5114702;28;20707;-59
2021/12/15 10:18:04;;;;;;;12.93;8.70;;;7.40;81.40;;;;;;5073732;28;20727;-59
2021/12/15 10:20:32;;;;;;;10.00;7.80;;;7.40;81.20;;;;;;5114284;28;20689;-58
2021/12/15 10:23:03;;;;;;;10.40;8.15;;;7.40;81.60;;;;;;5114402;28;20199;-62
2021/12/15 10:25:34;;;;;;;9.55;8.18;;;7.40;81.90;;;;;;5114175;28;20673;-59
2021/12/15 10:28:05;;;;;;;10.32;8.70;;;7.40;81.40;;;;;;5114362;27;20222;-56
2021/12/15 10:30:35;;;;;;;10.13;8.38;;;7.30;80.80;;;;;;5114258;28;20286;-58
2021/12/15 10:33:05;;;;;;;10.65;8.90;;;7.30;81.70;;;;;;5112906;28;20300;-57
2021/12/15 10:35:34;;;;;;;9.35;7.47;;;7.30;81.50;;;;;;5114304;28;20245;-58
2021/12/15 10:38:28;;;;;;;13.23;9.10;;;7.40;81.40;;;;;;5114095;28;20203;-58
2021/12/15 10:41:02;;;;;;;9.32;8.30;;;7.30;81.30;;;;;;5114083;28;20231;-58
2021/12/15 10:43:36;;;;;;;11.32;8.30;;;7.40;81.30;;;;;;5113873;28;20314;-58
2021/12/15 10:46:08;;;;;;;9.05;7.80;;;7.20;81.00;;;;;;5113876;28;20199;-58
2021/12/15 10:48:47;;;;;;;8.38;7.25;;;7.20;81.20;;;;;;5112618;28;20199;-56
2021/12/15 10:51:38;;;;;;;10.02;8.32;;;7.30;81.50;;;;;;5113862;28;20242;-60
2021/12/15 10:54:08;;;;;;;9.95;8.52;;;7.30;81.20;;;;;;5110104;28;20286;-57
2021/12/15 10:56:37;;;;;;;10.27;7.70;;;7.20;80.90;;;;;;5113601;28;20628;-57
2021/12/15 10:59:08;;;;;;;10.95;9.07;;;7.20;81.10;;;;;;5113674;28;20297;-57
2021/12/15 11:01:43;;;;;;;12.85;8.60;;;7.20;81.00;;;;;;5113669;28;20221;-60
2021/12/15 11:04:31;;;;;;;10.57;9.02;;;7.20;80.90;;;;;;5112048;28;20327;-57
2021/12/15 11:07:23;;;;;;;10.35;7.93;;;7.20;81.60;;;;;;5113601;28;20282;-59
2021/12/15 11:09:54;;;;;;;10.43;8.00;;;7.30;81.70;;;;;;5113556;28;20229;-57
2021/12/15 11:12:24;;;;;;;9.43;8.15;;;7.20;80.50;;;;;;5113557;28;20203;-59
2021/12/15 11:14:55;;;;;;;11.30;8.93;;;7.10;81.40;;;;;;5113391;28;20294;-60
2021/12/15 11:17:25;;;;;;;8.88;7.97;;;7.00;81.70;;;;;;5113267;28;20248;-57
2021/12/15 11:19:59;;;;;;;8.77;7.78;;;6.80;81.10;;;;;;5111882;28;20224;-58
2021/12/15 11:22:58;;;;;;;8.02;6.60;;;6.80;82.00;;;;;;5113437;28;20198;-57
2021/12/15 11:25:33;;;;;;;10.07;7.53;;;6.90;82.20;;;;;;5113157;28;20206;-58
2021/12/15 11:28:04;;;;;;;7.93;7.13;;;6.90;81.50;;;;;;5113352;28;20211;-58
2021/12/15 11:30:37;;;;;;;9.80;8.20;;;7.00;81.90;;;;;;5113302;28;20298;-59
2021/12/15 11:33:07;;;;;;;9.23;7.93;;;7.20;82.10;;;;;;5112043;28;20209;-57
2021/12/15 11:35:36;;;;;;;9.75;7.90;;;7.30;81.70;;;;;;5113140;28;20658;-59
2021/12/15 11:38:07;;;;;;;11.70;8.90;;;7.30;81.20;;;;;;5113102;28;20572;-57
2021/12/15 11:40:40;;;;;;;13.73;9.55;;;7.20;81.30;;;;;;5113009;28;20372;-57
2021/12/15 11:43:08;;;;;;;13.05;9.75;;;7.20;80.90;;;;;;5113019;28;20590;-59
2021/12/15 11:45:41;;;;;;;11.15;8.80;;;7.30;81.20;;;;;;5113205;28;20290;-59
2021/12/15 11:48:18;;;;;;;12.13;9.00;;;7.20;80.30;;;;;;5111828;28;20224;-58
2021/12/15 11:50:46;;;;;;;12.38;9.30;;;7.10;81.40;;;;;;5112996;28;20286;-60
2021/12/15 11:53:33;;;;;;;10.48;8.55;;;7.00;81.50;;;;;;5113312;28;20199;-57
2021/12/15 11:56:26;;;;;;;11.15;8.32;;;7.00;81.50;;;;;;5113086;28;20222;-58
2021/12/15 11:58:58;;;;;;;12.18;9.85;;;6.90;82.00;;;;;;5098505;28;20403;-57
2021/12/15 12:01:41;;;;;;;12.48;10.43;;;6.90;82.30;;;;;;5112799;28;20223;-57
2021/12/15 12:04:19;;;;;;;12.43;9.63;;;7.10;82.30;;;;;;5111665;28;20286;-59
2021/12/15 12:06:48;;;;;;;14.25;9.98;;;7.10;82.40;;;;;;5113005;28;20286;-58
2021/12/15 12:09:18;;;;;;;11.07;9.65;;;7.10;81.90;;;;;;5113031;28;20294;-57
2021/12/15 12:11:50;;;;;;;11.90;9.57;;;7.00;81.40;;;;;;5112673;28;20203;-60
2021/12/15 12:14:29;;;;;;;10.40;8.93;;;7.10;82.00;;;;;;5112998;28;20195;-59
2021/12/15 12:16:57;;;;;;;12.32;9.63;;;7.20;81.80;;;;;;5116177;28;20221;-56
2021/12/15 12:19:24;;;;;;;12.00;9.55;;;7.10;81.50;;;;;;5115359;28;20206;-58
2021/12/15 12:21:51;;;;;;;14.00;10.63;;;7.00;81.70;;;;;;5116735;28;20231;-58
2021/12/15 12:24:18;;;;;;;13.32;9.30;;;6.90;82.40;;;;;;5116589;28;20258;-59
2021/12/15 12:26:46;;;;;;;13.52;9.50;;;6.90;82.10;;;;;;5116573;28;20203;-57
2021/12/15 12:29:14;;;;;;;13.00;10.35;;;7.00;82.50;;;;;;5116513;28;20565;-57
2021/12/15 12:31:40;;;;;;;13.55;10.30;;;6.90;82.20;;;;;;5116459;28;20211;-58
2021/12/15 12:34:09;;;;;;;12.55;10.68;;;6.80;82.60;;;;;;5115158;28;20210;-59
2021/12/15 12:36:37;;;;;;;11.48;10.27;;;6.90;82.80;;;;;;5116491;28;20294;-58
2021/12/15 12:39:09;;;;;;;12.25;10.10;;;6.70;82.40;;;;;;5116311;28;20298;-58
2021/12/15 12:41:41;;;;;;;13.10;10.23;;;6.70;83.20;;;;;;5116271;28;20227;-59
2021/12/15 12:44:11;;;;;;;12.40;10.25;;;6.80;83.40;;;;;;5116101;28;20231;-58
2021/12/15 12:46:46;;;;;;;13.13;11.10;;;6.90;82.80;;;;;;5116356;28;20203;-58
2021/12/15 12:49:51;;;;;;;12.25;10.93;;;7.10;82.60;;;;;;5114769;28;20271;-58
2021/12/15 12:58:04;;;;;;;12.73;10.48;;;7.30;82.00;;;;;;5116280;28;20199;-59
2021/12/15 13:00:36;;;;;;;10.57;9.50;;;7.30;81.50;;;;;;5115955;28;20239;-58
2021/12/15 13:03:09;;;;;;;11.45;9.70;;;7.30;81.30;;;;;;5114555;28;20200;-59
2021/12/15 13:05:41;;;;;;;10.60;9.40;;;7.40;81.40;;;;;;5116068;27;20196;-58
2021/12/15 13:08:12;;;;;;;10.85;9.82;;;7.40;81.30;;;;;;5115740;28;20643;-59
2021/12/15 13:10:59;;;;;;;11.68;10.43;;;7.30;81.20;;;;;;5115829;28;20302;-58
2021/12/15 13:13:28;;;;;;;10.13;9.07;;;7.30;81.80;;;;;;5115844;28;20199;-58
2021/12/15 13:15:59;;;;;;;10.60;9.15;;;7.40;81.90;;;;;;5115709;28;20294;-60
2021/12/15 13:18:27;;;;;;;10.55;9.48;;;7.40;81.60;;;;;;5114080;28;20310;-59
2021/12/15 13:20:58;;;;;;;13.95;11.40;;;7.30;81.30;;;;;;5115558;28;20256;-59
2021/12/15 13:23:39;;;;;;;14.25;10.52;;;7.40;81.50;;;;;;5115653;28;20269;-58
2021/12/15 13:28:51;;;;;;;12.80;11.38;;;7.50;81.40;;;;;;5115444;28;20202;-58
2021/12/15 13:31:21;;;;;;;11.77;10.60;;;7.40;80.50;;;;;;5115407;27;20196;-60
2021/12/15 13:33:51;;;;;;;13.00;10.85;;;7.30;80.60;;;;;;5114101;28;20210;-56
2021/12/15 13:36:20;;;;;;;11.35;9.70;;;7.20;80.50;;;;;;5115431;28;20231;-59
2021/12/15 13:38:52;;;;;;;10.70;9.55;;;7.20;81.20;;;;;;5115371;28;20242;-58
2021/12/15 13:41:36;;;;;;;10.90;9.80;;;7.20;81.70;;;;;;5115233;28;20319;-58
2021/12/15 13:44:07;;;;;;;10.48;9.38;;;7.40;81.60;;;;;;5115003;28;20282;-58
2021/12/15 13:46:44;;;;;;;11.50;9.98;;;7.30;81.00;;;;;;5115212;28;20222;-58
2021/12/15 13:49:22;;;;;;;12.45;10.05;;;7.30;81.40;;;;;;5113782;28;20653;-57
2021/12/15 13:52:22;;;;;;;12.13;10.02;;;7.20;81.70;;;;;;5114927;28;20657;-58
2021/12/15 13:55:20;;;;;;;11.63;10.27;;;7.30;81.80;;;;;;5114954;28;20288;-58
2021/12/15 13:58:00;;;;;;;11.00;9.90;;;7.20;81.00;;;;;;5115035;28;20199;-58
2021/12/15 14:00:31;;;;;;;12.05;10.75;;;7.20;81.70;;;;;;5114730;28;20252;-58
2021/12/15 14:03:14;;;;;;;13.23;10.68;;;7.30;81.70;;;;;;5113553;28;20342;-60